createdAt,value
2019-05-13T00:00:23.524Z,99.99
2019-05-13T00:01:23.819Z,99.99
2019-05-13T00:02:24.012Z,99.99
2019-05-13T00:03:23.976Z,99.99
2019-05-13T00:04:24.223Z,99.99
2019-05-13T00:05:23.374Z,99.99
2019-05-13T00:06:23.837Z,99.99
2019-05-13T00:07:23.971Z,99.99
2019-05-13T00:08:24.801Z,99.99
2019-05-13T00:09:24.526Z,99.99
2019-05-13T00:10:24.345Z,99.99
2019-05-13T00:11:23.985Z,99.99
2019-05-13T00:12:23.989Z,99.99
2019-05-13T00:13:23.732Z,99.99
2019-05-13T00:14:23.959Z,99.99
2019-05-13T00:15:24.324Z,99.99
2019-05-13T00:16:23.448Z,99.99
2019-05-13T00:17:23.713Z,99.99
2019-05-13T00:18:23.562Z,99.99
2019-05-13T00:19:23.361Z,99.99
2019-05-13T00:20:24.117Z,99.99
2019-05-13T00:21:23.231Z,99.99
2019-05-13T00:22:23.411Z,99.99
2019-05-13T00:23:23.370Z,99.99
2019-05-13T00:24:24.271Z,99.99
2019-05-13T00:25:24.241Z,99.99
2019-05-13T00:26:24.414Z,99.99
2019-05-13T00:27:23.489Z,99.99
2019-05-13T00:28:23.512Z,99.99
2019-05-13T00:29:23.477Z,99.99
2019-05-13T00:30:23.477Z,99.99
2019-05-13T00:31:24.170Z,99.99
2019-05-13T00:32:23.728Z,99.99
2019-05-13T00:33:24.365Z,99.99
2019-05-13T00:34:24.387Z,99.99
2019-05-13T00:35:23.322Z,99.99
2019-05-13T00:36:24.307Z,99.99
2019-05-13T00:37:24.475Z,99.99
2019-05-13T00:38:24.615Z,99.99
2019-05-13T00:39:24.555Z,99.99
2019-05-13T00:40:24.026Z,99.99
2019-05-13T00:41:24.470Z,99.99
2019-05-13T00:42:24.578Z,99.99
2019-05-13T00:43:24.524Z,99.99
2019-05-13T00:44:24.410Z,99.99
2019-05-13T00:45:24.535Z,99.99
2019-05-13T00:46:23.587Z,99.99
2019-05-13T00:47:23.631Z,99.99
2019-05-13T00:48:23.448Z,99.99
2019-05-13T00:49:23.879Z,99.99
2019-05-13T00:50:24.107Z,99.99
2019-05-13T00:51:24.396Z,99.99
2019-05-13T00:52:23.608Z,99.99
2019-05-13T00:53:23.776Z,99.99
2019-05-13T00:54:23.668Z,99.99
2019-05-13T00:55:23.838Z,99.99
2019-05-13T00:56:23.794Z,99.99
2019-05-13T00:57:23.844Z,99.99
2019-05-13T00:58:24.166Z,99.99
2019-05-13T00:59:24.229Z,99.99
2019-05-13T01:00:24.303Z,99.99
2019-05-13T01:01:24.326Z,99.99
2019-05-13T01:02:24.347Z,99.99
2019-05-13T01:03:26.374Z,99.99
2019-05-13T01:04:23.478Z,99.99
2019-05-13T01:05:23.526Z,99.99
2019-05-13T01:06:23.763Z,99.99
2019-05-13T01:07:28.598Z,99.99
2019-05-13T01:08:23.780Z,99.99
2019-05-13T01:09:23.830Z,99.99
2019-05-13T01:10:23.856Z,99.99
2019-05-13T01:11:23.755Z,99.99
2019-05-13T01:12:23.887Z,99.99
2019-05-13T01:13:23.886Z,99.99
2019-05-13T01:14:23.685Z,99.99
2019-05-13T01:15:24.728Z,99.99
2019-05-13T01:16:23.716Z,99.99
2019-05-13T01:17:23.740Z,99.99
2019-05-13T01:18:23.762Z,99.99
2019-05-13T01:19:23.865Z,99.99
2019-05-13T01:20:23.797Z,99.99
2019-05-13T01:21:24.005Z,99.99
2019-05-13T01:22:24.056Z,99.99
2019-05-13T01:23:24.184Z,99.99
2019-05-13T01:24:24.390Z,99.99
2019-05-13T01:25:24.412Z,99.99
2019-05-13T01:26:23.920Z,99.99
2019-05-13T01:27:24.064Z,99.99
2019-05-13T01:28:24.118Z,99.99
2019-05-13T01:29:24.026Z,99.99
2019-05-13T01:30:23.996Z,99.99
2019-05-13T01:31:24.114Z,99.99
2019-05-13T01:32:24.059Z,99.99
2019-05-13T01:33:24.057Z,99.99
2019-05-13T01:34:24.078Z,99.99
2019-05-13T01:35:24.104Z,99.99
2019-05-13T01:36:24.117Z,99.99
2019-05-13T01:37:38.837Z,99.99
2019-05-13T01:38:24.286Z,99.99
2019-05-13T01:39:24.458Z,99.99
2019-05-13T01:40:24.206Z,99.99
2019-05-13T01:41:24.215Z,99.99
2019-05-13T01:42:24.240Z,99.99
2019-05-13T01:43:24.668Z,99.99
2019-05-13T01:44:24.540Z,99.99
2019-05-13T01:45:24.295Z,99.99
2019-05-13T01:46:24.316Z,99.99
2019-05-13T01:47:24.336Z,99.99
2019-05-13T01:48:24.373Z,99.99
2019-05-13T01:49:24.375Z,99.99
2019-05-13T01:50:24.396Z,99.99
2019-05-13T01:51:24.416Z,99.99
2019-05-13T01:52:24.437Z,99.99
2019-05-13T01:53:24.568Z,99.99
2019-05-13T01:54:24.776Z,99.99
2019-05-13T01:55:24.524Z,99.99
2019-05-13T01:56:24.522Z,99.99
2019-05-13T01:57:24.536Z,99.99
2019-05-13T01:58:25.039Z,99.99
2019-05-13T01:59:24.719Z,99.99
2019-05-13T02:00:24.602Z,99.99
2019-05-13T02:01:24.620Z,99.99
2019-05-13T02:02:24.635Z,99.99
2019-05-13T02:03:24.891Z,99.99
2019-05-13T02:04:24.676Z,99.99
2019-05-13T02:05:24.696Z,99.99
2019-05-13T02:06:24.718Z,99.99
2019-05-13T02:07:24.734Z,99.99
2019-05-13T02:08:24.767Z,99.99
2019-05-13T02:09:24.779Z,99.99
2019-05-13T02:10:24.798Z,99.99
2019-05-13T02:11:24.814Z,99.99
2019-05-13T02:12:24.835Z,99.99
2019-05-13T02:13:25.199Z,99.99
2019-05-13T02:14:24.881Z,99.99
2019-05-13T02:15:24.894Z,99.99
2019-05-13T02:16:24.918Z,99.99
2019-05-13T02:17:24.933Z,99.99
2019-05-13T02:18:25.064Z,99.99
2019-05-13T02:19:24.974Z,99.99
2019-05-13T02:20:25.001Z,99.99
2019-05-13T02:21:25.012Z,99.99
2019-05-13T02:22:25.033Z,99.99
2019-05-13T02:23:25.064Z,99.99
2019-05-13T02:24:25.074Z,99.99
2019-05-13T02:25:25.097Z,99.99
2019-05-13T02:26:25.111Z,99.99
2019-05-13T02:27:25.633Z,99.99
2019-05-13T02:28:25.389Z,99.99
2019-05-13T02:29:25.172Z,99.99
2019-05-13T02:30:26.819Z,99.99
2019-05-13T02:31:39.134Z,99.99
2019-05-13T02:32:25.234Z,99.99
2019-05-13T02:33:25.257Z,99.99
2019-05-13T02:34:25.275Z,99.99
2019-05-13T02:35:25.292Z,99.99
2019-05-13T02:36:25.312Z,99.99
2019-05-13T02:37:29.298Z,99.99
2019-05-13T02:38:30.100Z,99.99
2019-05-13T02:39:25.373Z,99.99
2019-05-13T02:40:25.391Z,99.99
2019-05-13T02:41:25.411Z,99.99
2019-05-13T02:42:25.431Z,99.99
2019-05-13T02:43:25.449Z,99.99
2019-05-13T02:44:25.470Z,99.99
2019-05-13T02:45:25.491Z,99.99
2019-05-13T02:46:25.511Z,99.99
2019-05-13T02:47:25.533Z,99.99
2019-05-13T02:48:25.585Z,99.99
2019-05-13T02:49:25.571Z,99.99
2019-05-13T02:50:25.590Z,99.99
2019-05-13T02:51:25.615Z,99.99
2019-05-13T02:52:25.632Z,99.99
2019-05-13T02:53:25.655Z,99.99
2019-05-13T02:54:25.672Z,99.99
2019-05-13T02:55:25.691Z,99.99
2019-05-13T02:56:25.710Z,99.99
2019-05-13T02:57:25.764Z,99.99
2019-05-13T02:58:25.751Z,99.99
2019-05-13T02:59:25.769Z,99.99
2019-05-13T03:00:25.801Z,99.99
2019-05-13T03:01:25.818Z,99.99
2019-05-13T03:02:25.829Z,99.99
2019-05-13T03:03:25.857Z,99.99
2019-05-13T03:04:25.873Z,99.99
2019-05-13T03:05:25.889Z,99.99
2019-05-13T03:06:25.918Z,99.99
2019-05-13T03:07:25.933Z,99.99
2019-05-13T03:08:39.202Z,99.99
2019-05-13T03:09:25.970Z,99.99
2019-05-13T03:10:25.997Z,99.99
2019-05-13T03:11:26.013Z,99.99
2019-05-13T03:12:26.032Z,99.99
2019-05-13T03:13:26.053Z,99.99
2019-05-13T03:14:26.081Z,99.99
2019-05-13T03:15:26.094Z,99.99
2019-05-13T03:16:26.112Z,99.99
2019-05-13T03:17:26.133Z,99.99
2019-05-13T03:18:26.154Z,99.99
2019-05-13T03:19:26.172Z,99.99
2019-05-13T03:20:26.194Z,99.99
2019-05-13T03:21:26.235Z,99.99
2019-05-13T03:22:26.244Z,99.99
2019-05-13T03:23:26.257Z,99.99
2019-05-13T03:24:26.299Z,99.99
2019-05-13T03:25:26.300Z,99.99
2019-05-13T03:26:26.316Z,99.99
2019-05-13T03:27:26.333Z,99.99
2019-05-13T03:28:26.355Z,99.99
2019-05-13T03:29:26.387Z,99.99
2019-05-13T03:30:26.562Z,99.99
2019-05-13T03:31:27.041Z,99.99
2019-05-13T03:32:35.153Z,99.99
2019-05-13T03:33:28.358Z,99.99
2019-05-13T03:34:27.582Z,99.99
2019-05-13T03:35:27.895Z,99.99
2019-05-13T03:36:26.905Z,99.99
2019-05-13T03:37:27.379Z,99.99
2019-05-13T03:38:26.558Z,99.99
2019-05-13T03:39:26.577Z,99.99
2019-05-13T03:40:26.599Z,99.99
2019-05-13T03:41:26.625Z,99.99
2019-05-13T03:42:26.643Z,99.99
2019-05-13T03:43:26.659Z,99.99
2019-05-13T03:44:26.707Z,99.99
2019-05-13T03:45:26.710Z,99.99
2019-05-13T03:46:26.741Z,99.99
2019-05-13T03:47:26.745Z,99.99
2019-05-13T03:48:26.760Z,99.99
2019-05-13T03:49:26.787Z,99.99
2019-05-13T03:50:30.736Z,99.99
2019-05-13T03:51:26.825Z,99.99
2019-05-13T03:52:26.846Z,99.99
2019-05-13T03:53:26.866Z,99.99
2019-05-13T03:54:26.887Z,99.99
2019-05-13T03:55:26.911Z,99.99
2019-05-13T03:56:26.928Z,99.99
2019-05-13T03:57:26.947Z,99.99
2019-05-13T03:58:26.973Z,99.99
2019-05-13T03:59:26.998Z,99.99
2019-05-13T04:00:27.011Z,99.99
2019-05-13T04:01:27.054Z,99.99
2019-05-13T04:02:27.056Z,99.99
2019-05-13T04:03:27.324Z,99.99
2019-05-13T04:04:27.186Z,99.99
2019-05-13T04:05:27.116Z,99.99
2019-05-13T04:06:27.247Z,99.99
2019-05-13T04:07:27.263Z,99.99
2019-05-13T04:08:27.176Z,99.99
2019-05-13T04:09:31.480Z,99.99
2019-05-13T04:10:27.233Z,99.99
2019-05-13T04:11:27.237Z,99.99
2019-05-13T04:12:28.539Z,99.99
2019-05-13T04:13:27.280Z,99.99
2019-05-13T04:14:27.305Z,99.99
2019-05-13T04:15:27.321Z,99.99
2019-05-13T04:16:27.340Z,99.99
2019-05-13T04:17:27.363Z,99.99
2019-05-13T04:18:27.385Z,99.99
2019-05-13T04:19:27.403Z,99.99
2019-05-13T04:20:27.424Z,99.99
2019-05-13T04:21:27.446Z,99.99
2019-05-13T04:22:27.466Z,99.99
2019-05-13T04:23:27.517Z,99.99
2019-05-13T04:24:27.506Z,99.99
2019-05-13T04:25:27.536Z,99.99
2019-05-13T04:26:27.554Z,99.99
2019-05-13T04:27:27.568Z,99.99
2019-05-13T04:28:27.591Z,99.99
2019-05-13T04:29:27.612Z,99.99
2019-05-13T04:30:27.633Z,99.99
2019-05-13T04:31:27.655Z,99.99
2019-05-13T04:32:29.004Z,99.99
2019-05-13T04:33:27.696Z,99.99
2019-05-13T04:34:27.717Z,99.99
2019-05-13T04:35:27.735Z,99.99
2019-05-13T04:36:27.768Z,99.99
2019-05-13T04:37:27.779Z,99.99
2019-05-13T04:38:27.803Z,99.99
2019-05-13T04:39:41.872Z,99.99
2019-05-13T04:40:27.846Z,99.99
2019-05-13T04:41:27.864Z,99.99
2019-05-13T04:42:27.888Z,99.99
2019-05-13T04:43:30.710Z,99.99
2019-05-13T04:44:27.927Z,99.99
2019-05-13T04:45:27.953Z,99.99
2019-05-13T04:46:27.972Z,99.99
2019-05-13T04:47:27.989Z,99.99
2019-05-13T04:48:28.015Z,99.99
2019-05-13T04:49:28.034Z,99.99
2019-05-13T04:50:28.061Z,99.99
2019-05-13T04:51:28.080Z,99.99
2019-05-13T04:52:28.096Z,99.99
2019-05-13T04:53:28.119Z,99.99
2019-05-13T04:54:28.143Z,99.99
2019-05-13T04:55:28.171Z,99.99
2019-05-13T04:56:28.184Z,99.99
2019-05-13T04:57:28.201Z,99.99
2019-05-13T04:58:28.229Z,99.99
2019-05-13T04:59:28.247Z,99.99
2019-05-13T05:00:28.354Z,99.99
2019-05-13T05:01:28.290Z,99.99
2019-05-13T05:02:39.964Z,99.99
2019-05-13T05:03:32.981Z,99.99
2019-05-13T05:04:31.082Z,99.99
2019-05-13T05:05:28.376Z,99.99
2019-05-13T05:06:28.396Z,99.99
2019-05-13T05:07:28.414Z,99.99
2019-05-13T05:08:28.436Z,99.99
2019-05-13T05:09:28.462Z,99.99
2019-05-13T05:10:34.854Z,99.99
2019-05-13T05:11:28.501Z,99.99
2019-05-13T05:12:28.524Z,99.99
2019-05-13T05:13:28.544Z,99.99
2019-05-13T05:14:28.566Z,99.99
2019-05-13T05:15:28.594Z,99.99
2019-05-13T05:16:28.615Z,99.99
2019-05-13T05:17:28.631Z,99.99
2019-05-13T05:18:28.650Z,99.99
2019-05-13T05:19:28.746Z,99.99
2019-05-13T05:20:28.722Z,99.99
2019-05-13T05:21:28.715Z,99.99
2019-05-13T05:22:28.743Z,99.99
2019-05-13T05:23:28.761Z,99.99
2019-05-13T05:24:28.787Z,99.99
2019-05-13T05:25:29.283Z,99.99
2019-05-13T05:26:31.155Z,99.99
2019-05-13T05:27:28.842Z,99.99
2019-05-13T05:28:28.865Z,99.99
2019-05-13T05:29:28.889Z,99.99
2019-05-13T05:30:28.909Z,99.99
2019-05-13T05:31:28.931Z,99.99
2019-05-13T05:32:28.953Z,99.99
2019-05-13T05:33:28.972Z,99.99
2019-05-13T05:34:28.996Z,99.99
2019-05-13T05:35:29.014Z,99.99
2019-05-13T05:36:29.036Z,99.99
2019-05-13T05:37:31.125Z,99.99
2019-05-13T05:38:31.664Z,99.99
2019-05-13T05:39:31.384Z,99.99
2019-05-13T05:40:32.281Z,99.99
2019-05-13T05:41:31.587Z,99.99
2019-05-13T05:42:29.169Z,99.99
2019-05-13T05:43:31.425Z,99.99
2019-05-13T05:44:32.117Z,99.99
2019-05-13T05:45:29.230Z,99.99
2019-05-13T05:46:29.254Z,99.99
2019-05-13T05:47:31.649Z,99.99
2019-05-13T05:48:31.371Z,99.99
2019-05-13T05:49:31.805Z,99.99
2019-05-13T05:50:31.798Z,99.99
2019-05-13T05:51:31.479Z,99.99
2019-05-13T05:52:31.496Z,99.99
2019-05-13T05:53:31.791Z,99.99
2019-05-13T05:54:31.657Z,99.99
2019-05-13T05:55:31.680Z,99.99
2019-05-13T05:56:29.471Z,99.99
2019-05-13T05:57:31.388Z,99.99
2019-05-13T05:58:31.587Z,99.99
2019-05-13T05:59:31.815Z,99.99
2019-05-13T06:00:29.556Z,99.99
2019-05-13T06:01:29.578Z,99.99
2019-05-13T06:02:32.194Z,99.99
2019-05-13T06:03:29.618Z,99.99
2019-05-13T06:04:32.279Z,99.99
2019-05-13T06:05:31.774Z,99.99
2019-05-13T06:06:32.734Z,99.99
2019-05-13T06:07:29.711Z,99.99
2019-05-13T06:08:32.192Z,99.99
2019-05-13T06:09:32.056Z,99.99
2019-05-13T06:10:44.175Z,99.99
2019-05-13T06:11:31.216Z,99.99
2019-05-13T06:12:31.510Z,99.99
2019-05-13T06:13:31.605Z,99.99
2019-05-13T06:14:32.377Z,99.99
2019-05-13T06:15:31.467Z,99.99
2019-05-13T06:16:32.031Z,99.99
2019-05-13T06:17:31.970Z,99.99
2019-05-13T06:18:32.026Z,99.99
2019-05-13T06:19:31.811Z,99.99
2019-05-13T06:20:31.690Z,99.99
2019-05-13T06:21:32.105Z,99.99
2019-05-13T06:22:32.052Z,99.99
2019-05-13T06:23:31.271Z,99.99
2019-05-13T06:24:31.274Z,99.99
2019-05-13T06:25:33.647Z,99.99
2019-05-13T06:26:31.439Z,99.99
2019-05-13T06:27:31.741Z,99.99
2019-05-13T06:28:32.214Z,99.99
2019-05-13T06:29:31.636Z,99.99
2019-05-13T06:30:32.408Z,99.99
2019-05-13T06:31:32.309Z,99.99
2019-05-13T06:32:31.426Z,99.99
2019-05-13T06:33:31.646Z,99.99
2019-05-13T06:34:32.694Z,99.99
2019-05-13T06:35:32.300Z,99.99
2019-05-13T06:36:31.632Z,99.99
2019-05-13T06:37:32.158Z,99.99
2019-05-13T06:38:31.610Z,99.99
2019-05-13T06:39:31.709Z,99.99
2019-05-13T06:40:31.806Z,99.99
2019-05-13T06:41:32.401Z,99.99
2019-05-13T06:42:32.456Z,99.99
2019-05-13T06:43:31.509Z,99.99
2019-05-13T06:44:31.621Z,99.99
2019-05-13T06:45:31.643Z,99.99
2019-05-13T06:46:32.343Z,99.99
2019-05-13T06:47:32.535Z,99.99
2019-05-13T06:48:32.342Z,99.99
2019-05-13T06:49:32.140Z,99.99
2019-05-13T06:50:32.384Z,99.99
2019-05-13T06:51:31.411Z,99.99
2019-05-13T06:52:31.964Z,99.99
2019-05-13T06:53:32.204Z,99.99
2019-05-13T06:54:32.984Z,99.99
2019-05-13T06:55:31.597Z,99.99
2019-05-13T06:56:32.240Z,99.99
2019-05-13T06:57:32.265Z,99.99
2019-05-13T06:58:32.519Z,99.99
2019-05-13T06:59:31.568Z,99.99
2019-05-13T07:00:34.753Z,99.99
2019-05-13T07:01:32.339Z,99.99
2019-05-13T07:02:32.003Z,99.99
2019-05-13T07:03:32.238Z,99.99
2019-05-13T07:04:32.742Z,99.99
2019-05-13T07:05:31.810Z,99.99
2019-05-13T07:06:32.265Z,99.99
2019-05-13T07:07:31.857Z,99.99
2019-05-13T07:08:31.494Z,99.99
2019-05-13T07:09:32.376Z,99.99
2019-05-13T07:10:32.071Z,99.99
2019-05-13T07:11:31.556Z,99.99
2019-05-13T07:12:31.436Z,99.99
2019-05-13T07:13:32.269Z,99.99
2019-05-13T07:14:32.426Z,99.99
2019-05-13T07:15:31.567Z,99.99
2019-05-13T07:16:31.777Z,99.99
2019-05-13T07:17:32.387Z,99.99
2019-05-13T07:18:32.400Z,99.99
2019-05-13T07:19:32.242Z,99.99
2019-05-13T07:20:32.177Z,99.99
2019-05-13T07:21:32.297Z,99.99
2019-05-13T07:22:32.280Z,99.99
2019-05-13T07:23:31.988Z,99.99
2019-05-13T07:24:32.223Z,99.99
2019-05-13T07:25:32.631Z,99.99
2019-05-13T07:26:31.632Z,99.99
2019-05-13T07:27:31.863Z,99.99
2019-05-13T07:28:32.357Z,99.99
2019-05-13T07:29:32.426Z,99.99
2019-05-13T07:30:31.684Z,99.99
2019-05-13T07:31:32.398Z,99.99
2019-05-13T07:32:31.670Z,99.95
2019-05-13T07:33:32.189Z,99.99
2019-05-13T07:34:33.476Z,99.99
2019-05-13T07:35:37.456Z,99.99
2019-05-13T07:36:31.813Z,99.99
2019-05-13T07:37:31.874Z,99.99
2019-05-13T07:38:32.379Z,99.99
2019-05-13T07:39:32.778Z,99.99
2019-05-13T07:40:32.241Z,99.99
2019-05-13T07:41:38.960Z,99.99
2019-05-13T07:42:31.746Z,99.90
2019-05-13T07:43:32.190Z,99.60
2019-05-13T07:44:32.592Z,98.97
2019-05-13T07:45:31.812Z,99.11
2019-05-13T07:46:32.355Z,98.23
2019-05-13T07:47:31.856Z,99.07
2019-05-13T07:48:32.194Z,98.52
2019-05-13T07:49:32.033Z,98.43
2019-05-13T07:50:32.290Z,98.72
2019-05-13T07:51:32.207Z,98.72
2019-05-13T07:52:32.135Z,98.52
2019-05-13T07:53:32.347Z,98.52
2019-05-13T07:54:33.097Z,98.82
2019-05-13T07:55:32.032Z,98.52
2019-05-13T07:56:32.571Z,98.82
2019-05-13T07:57:32.077Z,98.86
2019-05-13T07:58:37.045Z,99.60
2019-05-13T07:59:32.209Z,99.51
2019-05-13T08:00:32.718Z,98.72
2019-05-13T08:01:32.900Z,99.51
2019-05-13T08:02:32.184Z,99.31
2019-05-13T08:03:32.205Z,99.70
2019-05-13T08:04:33.640Z,99.80
2019-05-13T08:05:32.252Z,99.99
2019-05-13T08:06:32.545Z,99.99
2019-05-13T08:07:32.292Z,99.90
2019-05-13T08:08:32.539Z,99.80
2019-05-13T08:09:32.384Z,99.99
2019-05-13T08:10:32.425Z,99.99
2019-05-13T08:11:36.868Z,99.90
2019-05-13T08:12:32.504Z,99.99
2019-05-13T08:13:32.426Z,99.80
2019-05-13T08:14:32.551Z,99.99
2019-05-13T08:15:32.473Z,99.99
2019-05-13T08:16:32.493Z,99.99
2019-05-13T08:17:32.863Z,99.99
2019-05-13T08:18:32.538Z,99.99
2019-05-13T08:19:32.927Z,99.99
2019-05-13T08:20:32.859Z,99.99
2019-05-13T08:21:32.624Z,99.99
2019-05-13T08:22:32.629Z,99.99
2019-05-13T08:23:32.649Z,99.99
2019-05-13T08:24:32.861Z,99.99
2019-05-13T08:25:32.691Z,99.99
2019-05-13T08:26:32.720Z,99.99
2019-05-13T08:27:35.095Z,99.99
2019-05-13T08:28:32.758Z,99.99
2019-05-13T08:29:33.178Z,99.99
2019-05-13T08:30:32.804Z,99.99
2019-05-13T08:31:32.825Z,99.99
2019-05-13T08:32:32.859Z,99.99
2019-05-13T08:33:32.870Z,99.99
2019-05-13T08:34:33.313Z,99.99
2019-05-13T08:35:35.437Z,99.99
2019-05-13T08:36:32.934Z,99.99
2019-05-13T08:37:32.960Z,99.99
2019-05-13T08:38:32.979Z,99.99
2019-05-13T08:39:38.160Z,99.99
2019-05-13T08:40:33.028Z,99.99
2019-05-13T08:41:33.043Z,99.99
2019-05-13T08:42:33.066Z,99.99
2019-05-13T08:43:33.087Z,99.99
2019-05-13T08:44:33.122Z,99.99
2019-05-13T08:45:33.131Z,99.99
2019-05-13T08:46:33.152Z,99.99
2019-05-13T08:47:33.190Z,99.99
2019-05-13T08:48:33.198Z,99.99
2019-05-13T08:49:33.223Z,99.99
2019-05-13T08:50:33.298Z,99.99
2019-05-13T08:51:34.770Z,99.99
2019-05-13T08:52:33.311Z,99.99
2019-05-13T08:53:33.304Z,99.99
2019-05-13T08:54:33.364Z,99.99
2019-05-13T08:55:33.348Z,99.99
2019-05-13T08:56:33.370Z,99.99
2019-05-13T08:57:33.392Z,99.99
2019-05-13T08:58:33.417Z,99.99
2019-05-13T08:59:33.432Z,99.99
2019-05-13T09:00:33.453Z,99.99
2019-05-13T09:01:33.491Z,99.99
2019-05-13T09:02:33.501Z,99.99
2019-05-13T09:03:33.522Z,99.99
2019-05-13T09:04:33.548Z,99.99
2019-05-13T09:05:33.565Z,99.99
2019-05-13T09:06:33.591Z,99.99
2019-05-13T09:07:33.608Z,99.99
2019-05-13T09:08:33.635Z,99.99
2019-05-13T09:09:33.688Z,99.99
2019-05-13T09:10:33.672Z,99.99
2019-05-13T09:11:33.694Z,99.99
2019-05-13T09:12:36.346Z,99.99
2019-05-13T09:13:33.744Z,99.99
2019-05-13T09:14:33.761Z,99.99
2019-05-13T09:15:33.781Z,99.99
2019-05-13T09:16:33.806Z,99.99
2019-05-13T09:17:33.829Z,99.99
2019-05-13T09:18:33.853Z,99.99
2019-05-13T09:19:33.866Z,99.99
2019-05-13T09:20:34.140Z,99.99
2019-05-13T09:21:33.913Z,99.99
2019-05-13T09:22:33.932Z,99.99
2019-05-13T09:23:33.980Z,99.99
2019-05-13T09:24:37.632Z,99.99
2019-05-13T09:25:34.005Z,99.99
2019-05-13T09:26:34.020Z,99.99
2019-05-13T09:27:34.041Z,99.99
2019-05-13T09:28:34.061Z,99.99
2019-05-13T09:29:34.084Z,99.99
2019-05-13T09:30:34.107Z,99.99
2019-05-13T09:31:34.131Z,99.99
2019-05-13T09:32:34.152Z,99.99
2019-05-13T09:33:34.178Z,99.99
2019-05-13T09:34:34.210Z,99.99
2019-05-13T09:35:34.221Z,99.99
2019-05-13T09:36:34.252Z,99.99
2019-05-13T09:37:34.256Z,99.99
2019-05-13T09:38:34.314Z,99.99
2019-05-13T09:39:34.299Z,99.99
2019-05-13T09:40:34.327Z,99.99
2019-05-13T09:41:40.261Z,99.99
2019-05-13T09:42:48.183Z,99.99
2019-05-13T09:43:34.385Z,99.99
2019-05-13T09:44:34.404Z,99.99
2019-05-13T09:45:34.430Z,99.99
2019-05-13T09:46:34.449Z,99.99
2019-05-13T09:47:34.478Z,99.99
2019-05-13T09:48:34.490Z,99.99
2019-05-13T09:49:34.517Z,99.99
2019-05-13T09:50:36.226Z,99.99
2019-05-13T09:51:34.731Z,99.99
2019-05-13T09:52:34.619Z,99.99
2019-05-13T09:53:34.602Z,99.99
2019-05-13T09:54:34.619Z,99.99
2019-05-13T09:55:34.641Z,99.99
2019-05-13T09:56:34.666Z,99.99
2019-05-13T09:57:34.705Z,99.99
2019-05-13T09:58:34.705Z,99.99
2019-05-13T09:59:34.734Z,99.99
2019-05-13T10:00:34.751Z,99.99
2019-05-13T10:01:34.770Z,99.99
2019-05-13T10:02:34.793Z,99.99
2019-05-13T10:03:51.992Z,99.99
2019-05-13T10:04:34.865Z,99.99
2019-05-13T10:05:35.670Z,99.99
2019-05-13T10:06:34.878Z,99.99
2019-05-13T10:07:34.896Z,99.99
2019-05-13T10:08:34.933Z,99.99
2019-05-13T10:09:34.941Z,99.99
2019-05-13T10:10:34.960Z,99.99
2019-05-13T10:11:34.986Z,99.99
2019-05-13T10:12:35.004Z,99.99
2019-05-13T10:13:35.035Z,99.99
2019-05-13T10:14:35.045Z,99.99
2019-05-13T10:15:35.067Z,99.99
2019-05-13T10:16:35.108Z,99.99
2019-05-13T10:17:35.140Z,99.99
2019-05-13T10:18:35.131Z,99.99
2019-05-13T10:19:35.152Z,99.99
2019-05-13T10:20:35.172Z,99.99
2019-05-13T10:21:35.196Z,99.99
2019-05-13T10:22:35.222Z,99.99
2019-05-13T10:23:35.235Z,99.99
2019-05-13T10:24:35.257Z,99.99
2019-05-13T10:25:35.278Z,99.99
2019-05-13T10:26:35.323Z,99.99
2019-05-13T10:27:35.322Z,99.99
2019-05-13T10:28:35.357Z,99.99
2019-05-13T10:29:35.388Z,99.99
2019-05-13T10:30:35.418Z,99.99
2019-05-13T10:31:35.403Z,99.99
2019-05-13T10:32:35.429Z,99.99
2019-05-13T10:33:35.466Z,99.99
2019-05-13T10:34:35.474Z,99.99
2019-05-13T10:35:35.490Z,99.99
2019-05-13T10:36:35.512Z,99.99
2019-05-13T10:37:35.540Z,99.99
2019-05-13T10:38:35.560Z,99.99
2019-05-13T10:39:35.599Z,99.99
2019-05-13T10:40:35.600Z,99.99
2019-05-13T10:41:35.616Z,99.99
2019-05-13T10:42:35.638Z,99.99
2019-05-13T10:43:40.110Z,99.99
2019-05-13T10:44:35.679Z,99.99
2019-05-13T10:45:35.701Z,99.99
2019-05-13T10:46:35.723Z,99.99
2019-05-13T10:47:35.747Z,99.99
2019-05-13T10:48:35.768Z,99.99
2019-05-13T10:49:35.856Z,99.99
2019-05-13T10:50:35.812Z,99.99
2019-05-13T10:51:35.843Z,99.99
2019-05-13T10:52:35.852Z,99.99
2019-05-13T10:53:35.874Z,99.99
2019-05-13T10:54:35.891Z,99.99
2019-05-13T10:55:35.920Z,99.99
2019-05-13T10:56:35.937Z,99.99
2019-05-13T10:57:35.960Z,99.99
2019-05-13T10:58:35.981Z,99.99
2019-05-13T10:59:35.998Z,99.99
2019-05-13T11:00:36.017Z,99.99
2019-05-13T11:01:36.046Z,99.99
2019-05-13T11:02:36.062Z,99.99
2019-05-13T11:03:36.086Z,99.99
2019-05-13T11:04:36.104Z,99.99
2019-05-13T11:05:41.040Z,99.99
2019-05-13T11:06:36.154Z,99.99
2019-05-13T11:07:36.172Z,99.99
2019-05-13T11:08:36.189Z,99.99
2019-05-13T11:09:36.209Z,99.99
2019-05-13T11:10:36.229Z,99.99
2019-05-13T11:11:36.251Z,99.99
2019-05-13T11:12:36.278Z,99.99
2019-05-13T11:13:54.056Z,99.99
2019-05-13T11:14:36.314Z,99.99
2019-05-13T11:15:40.826Z,99.99
2019-05-13T11:16:36.359Z,99.99
2019-05-13T11:17:36.374Z,99.99
2019-05-13T11:18:36.396Z,99.99
2019-05-13T11:19:37.240Z,99.99
2019-05-13T11:20:36.441Z,99.99
2019-05-13T11:21:36.470Z,99.99
2019-05-13T11:22:36.490Z,99.99
2019-05-13T11:23:36.502Z,99.99
2019-05-13T11:24:36.522Z,99.99
2019-05-13T11:25:36.594Z,99.99
2019-05-13T11:26:36.795Z,99.99
2019-05-13T11:27:36.585Z,99.99
2019-05-13T11:28:36.611Z,99.99
2019-05-13T11:29:36.632Z,99.99
2019-05-13T11:30:36.654Z,99.99
2019-05-13T11:31:36.670Z,99.99
2019-05-13T11:32:36.693Z,99.99
2019-05-13T11:33:36.751Z,99.99
2019-05-13T11:34:36.735Z,99.99
2019-05-13T11:35:36.755Z,99.99
2019-05-13T11:36:36.771Z,99.99
2019-05-13T11:37:36.796Z,99.99
2019-05-13T11:38:36.819Z,99.99
2019-05-13T11:39:36.838Z,99.99
2019-05-13T11:40:36.860Z,99.99
2019-05-13T11:41:36.882Z,99.99
2019-05-13T11:42:36.897Z,99.99
2019-05-13T11:43:36.921Z,99.99
2019-05-13T11:44:36.942Z,99.99
2019-05-13T11:45:36.960Z,99.99
2019-05-13T11:46:36.992Z,99.99
2019-05-13T11:47:37.002Z,99.99
2019-05-13T11:48:37.024Z,99.99
2019-05-13T11:49:37.044Z,99.99
2019-05-13T11:50:37.065Z,99.99
2019-05-13T11:51:37.086Z,99.99
2019-05-13T11:52:37.110Z,99.99
2019-05-13T11:53:37.813Z,99.99
2019-05-13T11:54:37.150Z,99.99
2019-05-13T11:55:37.864Z,99.99
2019-05-13T11:56:44.877Z,99.99
2019-05-13T11:57:37.228Z,99.99
2019-05-13T11:58:37.241Z,99.99
2019-05-13T11:59:37.256Z,99.99
2019-05-13T12:00:37.274Z,99.99
2019-05-13T12:01:37.297Z,99.99
2019-05-13T12:02:37.312Z,99.99
2019-05-13T12:03:37.350Z,99.99
2019-05-13T12:04:37.360Z,99.99
2019-05-13T12:05:37.376Z,99.99
2019-05-13T12:06:44.674Z,99.99
2019-05-13T12:07:37.421Z,99.99
2019-05-13T12:08:37.452Z,99.99
2019-05-13T12:09:37.458Z,99.99
2019-05-13T12:10:37.482Z,99.99
2019-05-13T12:11:37.511Z,99.99
2019-05-13T12:12:37.519Z,99.99
2019-05-13T12:13:37.543Z,99.99
2019-05-13T12:14:56.204Z,99.99
2019-05-13T12:15:45.881Z,99.99
2019-05-13T12:16:37.604Z,99.99
2019-05-13T12:17:37.630Z,99.99
2019-05-13T12:18:43.468Z,99.99
2019-05-13T12:19:37.668Z,99.99
2019-05-13T12:20:37.686Z,99.99
2019-05-13T12:21:43.208Z,99.99
2019-05-13T12:22:37.726Z,99.99
2019-05-13T12:23:37.749Z,99.99
2019-05-13T12:24:37.774Z,99.99
2019-05-13T12:25:37.797Z,99.99
2019-05-13T12:26:37.809Z,99.99
2019-05-13T12:27:37.830Z,99.99
2019-05-13T12:28:37.850Z,99.99
2019-05-13T12:29:37.872Z,99.99
2019-05-13T12:30:37.898Z,99.99
2019-05-13T12:31:37.916Z,99.99
2019-05-13T12:32:37.931Z,99.99
2019-05-13T12:33:37.954Z,99.99
2019-05-13T12:34:41.828Z,99.99
2019-05-13T12:35:37.996Z,99.99
2019-05-13T12:36:38.041Z,99.99
2019-05-13T12:37:38.037Z,99.99
2019-05-13T12:38:38.059Z,99.99
2019-05-13T12:39:38.074Z,99.99
2019-05-13T12:40:38.104Z,99.99
2019-05-13T12:41:38.118Z,99.99
2019-05-13T12:42:44.366Z,99.99
2019-05-13T12:43:38.158Z,99.99
2019-05-13T12:44:59.827Z,99.99
2019-05-13T12:45:38.320Z,99.99
2019-05-13T12:46:38.276Z,99.99
2019-05-13T12:47:38.252Z,99.99
2019-05-13T12:48:38.272Z,99.99
2019-05-13T12:49:38.284Z,99.99
2019-05-13T12:50:38.306Z,99.99
2019-05-13T12:51:38.393Z,99.99
2019-05-13T12:52:38.357Z,99.99